createdAt,value
2023-08-13T00:00:04.154Z,18.00
2023-08-13T00:02:35.327Z,18.00
2023-08-13T00:05:06.179Z,18.00
2023-08-13T00:07:35.164Z,18.00
2023-08-13T00:10:05.521Z,18.00
2023-08-13T00:12:36.144Z,18.00
2023-08-13T00:15:05.813Z,18.00
2023-08-13T00:17:34.662Z,18.00
2023-08-13T00:20:03.493Z,18.00
2023-08-13T00:22:33.058Z,17.90
2023-08-13T00:25:01.907Z,17.90
2023-08-13T00:27:30.904Z,17.90
2023-08-13T00:30:01.398Z,17.80
2023-08-13T00:32:30.452Z,17.80
2023-08-13T00:34:59.351Z,17.80
2023-08-13T00:37:28.403Z,17.80
2023-08-13T00:39:57.234Z,17.80
2023-08-13T00:42:26.170Z,17.70
2023-08-13T00:44:55.317Z,17.60
2023-08-13T00:47:25.889Z,17.70
2023-08-13T00:49:55.114Z,17.70
2023-08-13T00:52:23.986Z,17.60
2023-08-13T00:54:52.872Z,17.60
2023-08-13T00:57:22.036Z,17.60
2023-08-13T00:59:52.171Z,17.50
2023-08-13T01:02:22.568Z,17.40
2023-08-13T01:04:52.897Z,17.40
2023-08-13T01:07:27.726Z,17.40
2023-08-13T01:10:10.781Z,17.40
2023-08-13T01:12:47.358Z,17.40
2023-08-13T01:15:19.303Z,17.40
2023-08-13T01:17:51.120Z,17.40
2023-08-13T01:20:26.734Z,17.30
2023-08-13T01:22:57.152Z,17.30
2023-08-13T01:25:27.851Z,17.20
2023-08-13T01:28:03.954Z,17.30
2023-08-13T01:30:40.684Z,17.20
2023-08-13T01:33:11.415Z,17.20
2023-08-13T01:35:40.689Z,17.20
2023-08-13T01:38:11.697Z,17.20
2023-08-13T01:40:40.966Z,17.20
2023-08-13T01:43:10.374Z,17.20
2023-08-13T01:45:39.306Z,17.20
2023-08-13T01:48:09.330Z,17.20
2023-08-13T01:50:40.241Z,17.20
2023-08-13T01:53:10.837Z,17.20
2023-08-13T01:55:39.839Z,17.10
2023-08-13T01:58:09.221Z,17.10
2023-08-13T02:00:38.082Z,17.10
2023-08-13T02:03:07.374Z,17.10
2023-08-13T02:05:36.398Z,17.10
2023-08-13T02:08:05.760Z,17.00
2023-08-13T02:10:36.292Z,17.10
2023-08-13T02:13:05.808Z,17.10
2023-08-13T02:15:34.872Z,17.10
2023-08-13T02:18:03.790Z,17.10
2023-08-13T02:20:32.691Z,17.00
2023-08-13T02:23:01.666Z,17.00
2023-08-13T02:25:30.566Z,17.00
2023-08-13T02:28:01.499Z,17.00
2023-08-13T02:30:30.481Z,16.90
2023-08-13T02:32:59.520Z,16.90
2023-08-13T02:35:28.475Z,16.90
2023-08-13T02:37:57.360Z,16.90
2023-08-13T02:40:26.431Z,16.90
2023-08-13T02:42:55.344Z,16.80
2023-08-13T02:45:25.695Z,16.80
2023-08-13T02:47:54.956Z,16.80
2023-08-13T02:50:23.840Z,16.80
2023-08-13T02:52:52.877Z,16.80
2023-08-13T02:55:21.825Z,16.80
2023-08-13T02:58:08.838Z,16.80
2023-08-13T03:00:41.014Z,16.70
2023-08-13T03:03:10.107Z,16.70
2023-08-13T03:05:39.094Z,16.70
2023-08-13T03:08:08.210Z,16.70
2023-08-13T03:10:37.184Z,16.70
2023-08-13T03:13:06.385Z,16.60
2023-08-13T03:15:35.399Z,16.60
2023-08-13T03:18:06.352Z,16.60
2023-08-13T03:20:38.195Z,16.60
2023-08-13T03:23:08.297Z,16.60
2023-08-13T03:25:37.709Z,16.60
2023-08-13T03:28:07.785Z,16.60
2023-08-13T03:30:36.923Z,16.60
2023-08-13T03:33:07.743Z,16.50
2023-08-13T03:35:39.257Z,16.50
2023-08-13T03:38:08.418Z,16.50
2023-08-13T03:40:40.347Z,16.50
2023-08-13T03:43:09.350Z,16.50
2023-08-13T03:45:38.406Z,16.40
2023-08-13T03:48:09.229Z,16.40
2023-08-13T03:50:43.632Z,16.40
2023-08-13T03:53:14.385Z,16.40
2023-08-13T03:55:44.397Z,16.40
2023-08-13T03:58:13.368Z,16.50
2023-08-13T04:00:42.597Z,16.50
2023-08-13T04:03:24.527Z,16.50
2023-08-13T04:05:55.608Z,16.50
2023-08-13T04:08:24.651Z,16.50
2023-08-13T04:10:54.577Z,16.50
2023-08-13T04:13:23.612Z,16.60
2023-08-13T04:15:52.590Z,16.60
2023-08-13T04:18:23.128Z,16.60
2023-08-13T04:20:56.010Z,16.70
2023-08-13T04:23:25.932Z,16.60
2023-08-13T04:25:55.012Z,16.60
2023-08-13T04:28:24.070Z,16.70
2023-08-13T04:30:53.861Z,16.60
2023-08-13T04:33:24.371Z,16.60
2023-08-13T04:35:55.575Z,16.70
2023-08-13T04:38:27.031Z,16.70
2023-08-13T04:40:58.415Z,16.90
2023-08-13T04:43:27.726Z,17.00
2023-08-13T04:45:57.506Z,17.10
2023-08-13T04:48:48.905Z,17.20
2023-08-13T04:51:21.160Z,17.30
2023-08-13T04:53:51.215Z,17.30
2023-08-13T04:56:21.592Z,17.40
2023-08-13T04:58:50.392Z,17.50
2023-08-13T05:01:20.159Z,17.60
2023-08-13T05:03:54.830Z,17.70
2023-08-13T05:06:24.531Z,17.80
2023-08-13T05:08:56.032Z,17.80
2023-08-13T05:11:25.370Z,18.00
2023-08-13T05:13:54.864Z,18.00
2023-08-13T05:16:24.394Z,18.10
2023-08-13T05:18:56.749Z,18.30
2023-08-13T05:21:25.848Z,18.30
2023-08-13T05:23:54.687Z,18.40
2023-08-13T05:26:23.770Z,18.50
2023-08-13T05:28:52.734Z,18.60
2023-08-13T05:31:22.440Z,18.60
2023-08-13T05:33:51.739Z,18.70
2023-08-13T05:36:22.087Z,18.80
2023-08-13T05:38:51.029Z,19.00
2023-08-13T05:41:21.404Z,19.00
2023-08-13T05:43:50.346Z,19.00
2023-08-13T05:46:19.141Z,19.10
2023-08-13T05:48:48.123Z,19.10
2023-08-13T05:51:17.186Z,19.20
2023-08-13T05:53:47.583Z,19.20
2023-08-13T05:56:16.403Z,19.40
2023-08-13T05:58:45.415Z,19.50
2023-08-13T06:01:14.460Z,19.70
2023-08-13T06:03:43.637Z,19.70
2023-08-13T06:06:13.376Z,19.80
2023-08-13T06:08:42.460Z,19.70
2023-08-13T06:11:14.015Z,19.80
2023-08-13T06:13:43.783Z,19.90
2023-08-13T06:16:12.798Z,20.10
2023-08-13T06:18:41.730Z,20.30
2023-08-13T06:21:10.767Z,20.50
2023-08-13T06:23:40.449Z,20.70
2023-08-13T06:26:09.852Z,21.10
2023-08-13T06:28:43.669Z,21.20
2023-08-13T06:31:22.095Z,21.30
2023-08-13T06:34:01.429Z,21.50
2023-08-13T06:36:30.201Z,21.60
2023-08-13T06:38:59.357Z,21.70
2023-08-13T06:41:28.413Z,21.80
2023-08-13T06:44:02.561Z,22.00
2023-08-13T06:46:31.765Z,22.10
2023-08-13T06:49:01.443Z,22.10
2023-08-13T06:51:32.534Z,22.20
2023-08-13T06:54:02.375Z,22.30
2023-08-13T06:56:31.995Z,22.40
2023-08-13T06:59:05.101Z,22.50
2023-08-13T07:01:34.935Z,22.50
2023-08-13T07:04:04.256Z,22.70
2023-08-13T07:06:33.071Z,22.70
2023-08-13T07:09:03.484Z,22.80
2023-08-13T07:11:33.748Z,22.80
2023-08-13T07:14:04.721Z,23.10
2023-08-13T07:16:33.798Z,23.20
2023-08-13T07:19:02.615Z,23.40
2023-08-13T07:21:31.634Z,23.60
2023-08-13T07:24:00.540Z,23.80
2023-08-13T07:26:29.482Z,23.90
2023-08-13T07:28:58.280Z,24.10
2023-08-13T07:31:29.121Z,24.20
2023-08-13T07:33:58.031Z,24.30
2023-08-13T07:36:27.068Z,24.40
2023-08-13T07:38:55.766Z,24.60
2023-08-13T07:41:24.587Z,24.80
2023-08-13T07:43:53.765Z,25.00
2023-08-13T07:46:22.756Z,25.10
2023-08-13T07:48:52.897Z,25.20
2023-08-13T07:51:21.936Z,25.30
2023-08-13T07:53:50.877Z,25.60
2023-08-13T07:56:19.840Z,25.90
2023-08-13T07:58:48.604Z,26.30
2023-08-13T08:01:18.602Z,26.50
2023-08-13T08:03:47.482Z,26.70
2023-08-13T08:06:17.748Z,26.80
2023-08-13T08:08:46.472Z,26.70
2023-08-13T08:11:15.289Z,26.60
2023-08-13T08:13:45.010Z,26.60
2023-08-13T08:16:14.178Z,26.50
2023-08-13T08:18:44.495Z,26.50
2023-08-13T08:21:13.636Z,26.30
2023-08-13T08:23:44.173Z,26.20
2023-08-13T08:26:13.130Z,26.10
2023-08-13T08:28:41.948Z,26.00
2023-08-13T08:31:10.978Z,26.10
2023-08-13T08:33:39.844Z,26.40
2023-08-13T08:36:08.580Z,26.60
2023-08-13T08:38:37.303Z,27.00
2023-08-13T08:41:07.552Z,27.30
2023-08-13T08:43:40.261Z,27.60
2023-08-13T08:46:12.014Z,27.80
2023-08-13T08:48:43.070Z,27.80
2023-08-13T08:51:12.560Z,27.60
2023-08-13T08:53:42.943Z,27.20
2023-08-13T08:56:13.388Z,27.10
2023-08-13T08:58:42.123Z,26.90
2023-08-13T09:01:11.194Z,27.00
2023-08-13T09:03:40.105Z,27.40
2023-08-13T09:06:20.688Z,27.80
2023-08-13T09:08:51.434Z,28.10
2023-08-13T09:11:21.883Z,28.40
2023-08-13T09:13:51.288Z,28.60
2023-08-13T09:16:21.346Z,28.80
2023-08-13T09:19:04.153Z,29.00
2023-08-13T09:21:37.421Z,29.00
2023-08-13T09:24:06.967Z,29.10
2023-08-13T09:26:38.477Z,29.10
2023-08-13T09:29:09.576Z,29.20
2023-08-13T09:31:38.942Z,29.30
2023-08-13T09:34:07.838Z,29.10
2023-08-13T09:36:37.379Z,29.10
2023-08-13T09:39:08.789Z,28.90
2023-08-13T09:41:40.011Z,28.80
2023-08-13T09:44:12.352Z,28.60
2023-08-13T09:46:43.457Z,28.40
2023-08-13T09:49:15.187Z,28.20
2023-08-13T09:51:46.796Z,28.00
2023-08-13T09:54:26.689Z,27.70
2023-08-13T09:57:04.425Z,27.60
2023-08-13T09:59:36.268Z,27.70
2023-08-13T10:02:08.772Z,27.70
2023-08-13T10:04:41.660Z,27.90
2023-08-13T10:07:11.122Z,28.20
2023-08-13T10:09:40.549Z,28.40
2023-08-13T10:12:12.169Z,28.70
2023-08-13T10:14:41.437Z,28.90
2023-08-13T10:17:10.600Z,29.10
2023-08-13T10:19:40.941Z,29.20
2023-08-13T10:22:12.418Z,29.40
2023-08-13T10:24:45.087Z,29.50
2023-08-13T10:27:15.684Z,29.50
2023-08-13T10:29:45.265Z,29.40
2023-08-13T10:32:17.096Z,29.20
2023-08-13T10:34:49.141Z,29.30
2023-08-13T10:37:19.881Z,29.20
2023-08-13T10:39:49.647Z,29.10
2023-08-13T10:42:54.695Z,29.00
2023-08-13T10:45:25.687Z,29.00
2023-08-13T10:47:56.624Z,29.00
2023-08-13T10:50:30.286Z,29.10
2023-08-13T10:53:05.012Z,29.50
2023-08-13T10:55:36.017Z,29.60
2023-08-13T10:58:07.426Z,29.60
2023-08-13T11:00:44.966Z,29.50
2023-08-13T11:03:25.167Z,29.40
2023-08-13T11:05:54.486Z,29.40
2023-08-13T11:08:41.486Z,29.40
2023-08-13T11:11:14.410Z,29.40
2023-08-13T11:13:44.784Z,29.40
2023-08-13T11:16:13.704Z,29.40
2023-08-13T11:18:42.740Z,29.30
2023-08-13T11:21:11.728Z,29.40
2023-08-13T11:23:40.732Z,29.40
2023-08-13T11:26:10.204Z,29.40
2023-08-13T11:28:39.500Z,29.50
2023-08-13T11:31:09.985Z,29.60
2023-08-13T11:33:38.771Z,29.60
2023-08-13T11:36:08.000Z,29.80
2023-08-13T11:38:36.802Z,30.10
2023-08-13T11:41:13.602Z,30.30
2023-08-13T11:43:42.548Z,30.40
2023-08-13T11:46:12.898Z,30.60
2023-08-13T11:48:42.020Z,30.80
2023-08-13T11:51:20.749Z,30.90
2023-08-13T11:53:51.513Z,31.10
2023-08-13T11:56:21.343Z,31.20
2023-08-13T11:58:52.490Z,31.20
2023-08-13T12:01:26.710Z,31.20
2023-08-13T12:03:55.624Z,31.30
2023-08-13T12:06:24.912Z,31.60
2023-08-13T12:08:54.879Z,31.90
2023-08-13T12:11:23.738Z,32.10
2023-08-13T12:13:52.610Z,32.00
2023-08-13T12:16:22.999Z,31.80
2023-08-13T12:18:51.832Z,31.70
2023-08-13T12:21:20.795Z,31.60
2023-08-13T12:23:49.750Z,31.40
2023-08-13T12:26:18.475Z,31.40
2023-08-13T12:28:51.701Z,31.40
2023-08-13T12:31:21.116Z,31.30
2023-08-13T12:33:51.485Z,31.30
2023-08-13T12:36:20.256Z,31.40
2023-08-13T12:38:49.244Z,31.60
2023-08-13T12:41:23.980Z,31.80
2023-08-13T12:43:56.182Z,32.00
2023-08-13T12:46:24.975Z,32.10
2023-08-13T12:48:55.543Z,32.10
2023-08-13T12:51:24.432Z,31.90
2023-08-13T12:53:53.305Z,31.60
2023-08-13T12:56:22.167Z,31.40
2023-08-13T12:58:51.196Z,31.00
2023-08-13T13:01:20.115Z,30.90
2023-08-13T13:03:48.948Z,31.10
2023-08-13T13:06:19.314Z,31.30
2023-08-13T13:08:48.216Z,31.60
2023-08-13T13:11:17.068Z,31.90
2023-08-13T13:13:46.666Z,32.10
2023-08-13T13:16:15.714Z,32.30
2023-08-13T13:18:45.116Z,32.50
2023-08-13T13:21:14.154Z,32.60
2023-08-13T13:23:44.638Z,32.80
2023-08-13T13:26:13.361Z,33.00
2023-08-13T13:28:42.835Z,33.00
2023-08-13T13:31:12.944Z,33.00
2023-08-13T13:33:42.235Z,32.90
2023-08-13T13:36:11.162Z,32.70
2023-08-13T13:38:40.073Z,32.60
2023-08-13T13:41:14.351Z,32.50
2023-08-13T13:43:43.245Z,32.40
2023-08-13T13:46:11.924Z,32.40
2023-08-13T13:48:40.736Z,32.50
2023-08-13T13:51:09.874Z,32.40
2023-08-13T13:53:39.242Z,32.40
2023-08-13T13:56:11.390Z,32.20
2023-08-13T13:58:40.276Z,32.10
2023-08-13T14:01:35.153Z,31.90
2023-08-13T14:04:34.330Z,31.60
2023-08-13T14:07:06.705Z,31.20
2023-08-13T14:09:35.494Z,30.80
2023-08-13T14:12:07.967Z,30.50
2023-08-13T14:14:36.820Z,30.20
2023-08-13T14:17:05.585Z,30.00
2023-08-13T14:19:34.495Z,29.80
2023-08-13T14:22:03.377Z,29.60
2023-08-13T14:24:32.411Z,29.40
2023-08-13T14:27:01.324Z,29.00
2023-08-13T14:29:35.044Z,28.80
2023-08-13T14:32:03.915Z,28.50
2023-08-13T14:34:32.753Z,28.30
2023-08-13T14:37:01.516Z,27.90
2023-08-13T14:39:30.292Z,27.60
2023-08-13T14:41:59.181Z,27.30
2023-08-13T14:44:28.202Z,27.30
2023-08-13T14:46:58.406Z,27.50
2023-08-13T14:49:27.288Z,27.80
2023-08-13T14:51:56.290Z,28.20
2023-08-13T14:54:25.402Z,28.80
2023-08-13T14:56:54.176Z,29.30
2023-08-13T14:59:22.943Z,29.90
2023-08-13T15:01:52.028Z,30.20
2023-08-13T15:04:22.202Z,30.40
2023-08-13T15:06:51.053Z,30.60
2023-08-13T15:09:19.720Z,30.60
2023-08-13T15:11:48.549Z,30.50
2023-08-13T15:14:17.319Z,30.40
2023-08-13T15:16:46.182Z,30.30
2023-08-13T15:19:14.831Z,30.50
2023-08-13T15:21:45.052Z,30.70
2023-08-13T15:24:13.832Z,30.90
2023-08-13T15:26:42.611Z,31.00
2023-08-13T15:29:11.423Z,31.00
2023-08-13T15:31:40.898Z,31.00
2023-08-13T15:34:10.585Z,30.80
2023-08-13T15:36:39.284Z,30.70
2023-08-13T15:39:10.131Z,30.60
2023-08-13T15:41:38.851Z,30.60
2023-08-13T15:44:07.964Z,30.50
2023-08-13T15:46:37.057Z,30.30
2023-08-13T15:49:06.381Z,30.20
2023-08-13T15:51:35.061Z,30.00
2023-08-13T15:54:03.930Z,30.00
2023-08-13T15:56:34.050Z,30.10
2023-08-13T15:59:02.774Z,30.00
2023-08-13T16:01:31.662Z,29.60
2023-08-13T16:04:00.498Z,29.30
2023-08-13T16:06:29.211Z,29.10
2023-08-13T16:08:58.096Z,28.90
2023-08-13T16:11:27.133Z,28.70
2023-08-13T16:13:57.301Z,28.50
2023-08-13T16:16:26.184Z,28.40
2023-08-13T16:18:54.789Z,28.40
2023-08-13T16:21:24.368Z,28.30
2023-08-13T16:24:04.697Z,28.30
2023-08-13T16:26:38.025Z,28.40
2023-08-13T16:29:08.403Z,28.40
2023-08-13T16:31:37.217Z,28.40
2023-08-13T16:34:06.247Z,28.50
2023-08-13T16:36:35.612Z,28.50
2023-08-13T16:39:05.168Z,28.50
2023-08-13T16:41:34.025Z,28.40
2023-08-13T16:44:02.839Z,28.40
2023-08-13T16:46:33.093Z,28.40
2023-08-13T16:49:02.095Z,28.50
2023-08-13T16:51:30.750Z,28.60
2023-08-13T16:53:59.649Z,28.80
2023-08-13T16:56:28.616Z,28.80
2023-08-13T16:58:57.464Z,28.90
2023-08-13T17:01:26.354Z,28.90
2023-08-13T17:03:57.156Z,29.00
2023-08-13T17:06:26.199Z,28.80
2023-08-13T17:08:54.961Z,28.60
2023-08-13T17:11:23.794Z,28.40
2023-08-13T17:13:52.562Z,28.20
2023-08-13T17:16:21.450Z,28.10
2023-08-13T17:18:52.284Z,28.10
2023-08-13T17:21:23.899Z,28.10
2023-08-13T17:23:52.699Z,28.00
2023-08-13T17:26:22.410Z,27.90
2023-08-13T17:28:53.900Z,27.90
2023-08-13T17:31:22.596Z,28.20
2023-08-13T17:33:51.449Z,28.50
2023-08-13T17:36:21.672Z,28.60
2023-08-13T17:38:50.619Z,28.60
2023-08-13T17:41:19.295Z,28.60
2023-08-13T17:43:48.150Z,28.50
2023-08-13T17:46:16.954Z,28.20
2023-08-13T17:48:45.721Z,27.80
2023-08-13T17:51:14.681Z,27.40
2023-08-13T17:53:44.870Z,26.90
2023-08-13T17:56:13.687Z,26.60
2023-08-13T17:58:54.956Z,26.20
2023-08-13T18:01:25.824Z,25.90
2023-08-13T18:03:54.756Z,25.50
2023-08-13T18:06:23.689Z,25.30
2023-08-13T18:09:05.151Z,25.10
2023-08-13T18:11:34.913Z,24.90
2023-08-13T18:14:04.075Z,24.70
2023-08-13T18:16:33.017Z,24.50
2023-08-13T18:19:02.114Z,24.40
2023-08-13T18:21:31.024Z,24.20
2023-08-13T18:24:03.732Z,24.10
2023-08-13T18:26:32.721Z,24.00
2023-08-13T18:29:01.551Z,23.90
2023-08-13T18:31:30.361Z,23.90
2023-08-13T18:33:59.036Z,23.90
2023-08-13T18:36:27.923Z,23.80
2023-08-13T18:38:57.186Z,23.70
2023-08-13T18:41:28.225Z,23.60
2023-08-13T18:43:56.960Z,23.40
2023-08-13T18:46:25.846Z,23.20
2023-08-13T18:48:55.030Z,23.00
2023-08-13T18:51:23.825Z,22.80
2023-08-13T18:53:52.933Z,22.70
2023-08-13T18:56:21.821Z,22.60
2023-08-13T18:58:52.092Z,22.50
2023-08-13T19:01:21.203Z,22.40
2023-08-13T19:03:50.538Z,22.30
2023-08-13T19:06:19.453Z,22.30
2023-08-13T19:08:48.377Z,22.30
2023-08-13T19:11:17.258Z,22.20
2023-08-13T19:13:46.304Z,22.20
2023-08-13T19:16:16.767Z,22.10
2023-08-13T19:18:45.561Z,22.10
2023-08-13T19:21:14.307Z,22.00
2023-08-13T19:23:43.238Z,22.00
2023-08-13T19:26:12.411Z,21.90
2023-08-13T19:28:41.160Z,22.00
2023-08-13T19:31:10.071Z,22.00
2023-08-13T19:33:40.427Z,22.00
2023-08-13T19:36:09.235Z,22.00
2023-08-13T19:38:38.073Z,21.90
2023-08-13T19:41:06.775Z,21.80
2023-08-13T19:43:35.680Z,21.70
2023-08-13T19:46:04.560Z,21.70
2023-08-13T19:48:33.311Z,21.60
2023-08-13T19:51:03.643Z,21.60
2023-08-13T19:53:32.435Z,21.50
2023-08-13T19:56:01.133Z,21.40
2023-08-13T19:58:30.080Z,21.40
2023-08-13T20:00:58.901Z,21.30
2023-08-13T20:03:27.941Z,21.30
2023-08-13T20:05:56.851Z,21.20
2023-08-13T20:08:27.178Z,21.10
2023-08-13T20:10:56.028Z,21.10
2023-08-13T20:13:27.752Z,21.00
2023-08-13T20:16:21.364Z,20.90
2023-08-13T20:18:50.169Z,20.90
2023-08-13T20:21:19.047Z,20.80
2023-08-13T20:23:50.325Z,20.80
2023-08-13T20:26:19.259Z,20.90
2023-08-13T20:28:49.131Z,20.90
2023-08-13T20:31:17.954Z,21.00
2023-08-13T20:33:47.740Z,21.00
2023-08-13T20:36:17.400Z,20.90
2023-08-13T20:38:46.182Z,21.00
2023-08-13T20:41:16.377Z,20.90
2023-08-13T20:43:45.213Z,20.90
2023-08-13T20:46:15.656Z,20.90
2023-08-13T20:48:44.469Z,20.80
2023-08-13T20:51:13.441Z,20.80
2023-08-13T20:53:42.225Z,20.70
2023-08-13T20:56:11.058Z,20.70
2023-08-13T20:58:41.399Z,20.70
2023-08-13T21:01:10.212Z,20.70
2023-08-13T21:03:38.922Z,20.70
2023-08-13T21:06:07.616Z,20.70
2023-08-13T21:08:36.498Z,20.70
2023-08-13T21:11:05.317Z,20.70
2023-08-13T21:13:34.147Z,20.70
2023-08-13T21:16:04.593Z,20.70
2023-08-13T21:18:33.323Z,20.80
2023-08-13T21:21:02.242Z,20.70
2023-08-13T21:23:30.948Z,20.80
2023-08-13T21:25:59.952Z,20.70
2023-08-13T21:28:28.925Z,20.70
2023-08-13T21:30:57.886Z,20.70
2023-08-13T21:33:28.245Z,20.70
2023-08-13T21:35:57.087Z,20.70
2023-08-13T21:38:25.958Z,20.70
2023-08-13T21:40:54.755Z,20.70
2023-08-13T21:43:23.476Z,20.60
2023-08-13T21:45:52.325Z,20.60
2023-08-13T21:48:21.143Z,20.50
2023-08-13T21:50:51.360Z,20.40
2023-08-13T21:53:20.261Z,20.30
2023-08-13T21:55:49.275Z,20.30
2023-08-13T21:58:18.498Z,20.30
2023-08-13T22:00:48.714Z,20.20
2023-08-13T22:03:19.323Z,20.20
2023-08-13T22:05:48.264Z,20.10
2023-08-13T22:08:18.446Z,20.10
2023-08-13T22:10:47.336Z,20.00
2023-08-13T22:13:16.121Z,20.00
2023-08-13T22:15:45.001Z,19.90
2023-08-13T22:18:13.784Z,19.90
2023-08-13T22:20:42.892Z,19.80
2023-08-13T22:23:11.694Z,19.80
2023-08-13T22:25:41.921Z,19.80
2023-08-13T22:28:10.572Z,19.70
2023-08-13T22:30:39.356Z,19.70
2023-08-13T22:33:08.221Z,19.70
2023-08-13T22:35:36.954Z,19.60
2023-08-13T22:38:07.355Z,19.60
2023-08-13T22:40:36.354Z,19.70
2023-08-13T22:43:06.768Z,19.70
2023-08-13T22:45:35.564Z,19.80
2023-08-13T22:48:04.565Z,19.80
2023-08-13T22:50:34.023Z,19.80
2023-08-13T22:53:02.976Z,19.80
2023-08-13T22:55:31.734Z,19.70
2023-08-13T22:58:00.489Z,19.70
2023-08-13T23:00:30.949Z,19.70
2023-08-13T23:02:59.867Z,19.60
2023-08-13T23:05:28.641Z,19.60
2023-08-13T23:07:57.397Z,19.60
2023-08-13T23:10:26.436Z,19.70
2023-08-13T23:12:55.339Z,19.70
2023-08-13T23:15:24.243Z,19.70
2023-08-13T23:17:54.569Z,19.80
2023-08-13T23:20:24.287Z,19.70
2023-08-13T23:22:55.174Z,19.80
2023-08-13T23:25:24.003Z,19.70
2023-08-13T23:27:52.735Z,19.70
2023-08-13T23:30:21.660Z,19.70
2023-08-13T23:32:50.557Z,19.60
2023-08-13T23:35:21.458Z,19.60
2023-08-13T23:37:50.427Z,19.60
2023-08-13T23:40:19.212Z,19.60
2023-08-13T23:42:48.378Z,19.50
2023-08-13T23:45:17.280Z,19.60
2023-08-13T23:47:46.164Z,19.70
2023-08-13T23:50:15.153Z,19.70
2023-08-13T23:52:45.414Z,19.80
2023-08-13T23:55:14.320Z,19.80
2023-08-13T23:57:43.141Z,19.80
